Time;durP1;ratioP1;P1;durP2;ratioP2;P2;SDS_P1;SDS_P2;PMS_P1;PMS_P2;Temp;Humidity;BMP_temperature;BMP_pressure;BME280_temperature;BME280_humidity;BME280_pressure;Samples;Min_cycle;Max_cycle;Signal;HPM_P1;HPM_P2
2023/01/08 00:00:44;;;;;;;;;;;;;;;14.05;nan;101064.09;5060123;28;19935;-33
2023/01/08 00:03:10;;;;;;;;;;;;;;;14.07;nan;101066.53;5056153;28;20333;-33
2023/01/08 00:05:35;;;;;;;;;;;;;;;14.07;nan;101075.44;5056471;28;19928;-33
2023/01/08 00:08:00;;;;;;;;;;;;;;;14.07;nan;101066.53;5054555;28;20024;-33
2023/01/08 00:10:26;;;;;;;;;;;;;;;14.05;nan;101069.50;5056433;28;20008;-33
2023/01/08 00:12:51;;;;;;;;;;;;;;;14.05;nan;101069.50;5057989;28;20398;-33
2023/01/08 00:15:16;;;;;;;;;;;;;;;14.06;nan;101071.13;5058879;28;20328;-33
2023/01/08 00:17:42;;;;;;;;;;;;;;;14.04;nan;101065.19;5058755;28;20432;-33
2023/01/08 00:20:07;;;;;;;;;;;;;;;14.05;nan;101052.53;5057335;28;20432;-33
2023/01/08 00:22:33;;;;;;;;;;;;;;;14.05;nan;101057.91;5057427;28;20325;-33
2023/01/08 00:24:58;;;;;;;;;;;;;;;14.05;nan;101055.22;5059028;28;20228;-33
2023/01/08 00:27:23;;;;;;;;;;;;;;;14.04;nan;101062.50;5058353;28;19954;-33
2023/01/08 00:29:48;;;;;;;;;;;;;;;14.02;nan;101053.88;5053485;28;20234;-33
2023/01/08 00:32:14;;;;;;;;;;;;;;;14.00;nan;101039.00;5055382;28;19960;-34
2023/01/08 00:34:39;;;;;;;;;;;;;;;14.00;nan;101050.59;5057028;28;19964;-34
2023/01/08 00:37:04;;;;;;;;;;;;;;;13.97;nan;101051.13;5058910;28;20066;-33
2023/01/08 00:39:30;;;;;;;;;;;;;;;14.02;nan;101037.69;5055010;28;19998;-33
2023/01/08 00:41:55;;;;;;;;;;;;;;;14.00;nan;101039.81;5054420;28;20564;-33
2023/01/08 00:44:21;;;;;;;;;;;;;;;13.96;nan;101036.03;5059985;28;19923;-33
2023/01/08 00:46:46;;;;;;;;;;;;;;;14.00;nan;101039.00;5056138;28;19927;-33
2023/01/08 00:49:11;;;;;;;;;;;;;;;14.03;nan;101028.53;5061114;28;19924;-34
2023/01/08 00:51:36;;;;;;;;;;;;;;;14.03;nan;101025.84;5059158;28;19917;-34
2023/01/08 00:54:02;;;;;;;;;;;;;;;13.99;nan;101013.94;5060229;28;19921;-34
2023/01/08 00:56:27;;;;;;;;;;;;;;;13.99;nan;101019.34;5064626;28;19920;-33
2023/01/08 00:58:53;;;;;;;;;;;;;;;14.02;nan;101010.75;5060437;28;19927;-33
2023/01/08 01:01:18;;;;;;;;;;;;;;;13.98;nan;101006.94;5056838;28;20435;-34
2023/01/08 01:03:43;;;;;;;;;;;;;;;13.99;nan;101003.19;5057264;28;20490;-33
2023/01/08 01:06:09;;;;;;;;;;;;;;;13.99;nan;101005.06;5057867;28;19924;-33
2023/01/08 01:08:35;;;;;;;;;;;;;;;13.97;nan;100999.94;5057661;28;20370;-33
2023/01/08 01:11:04;;;;;;;;;;;;;;;14.01;nan;101003.75;5056277;28;19920;-33
2023/01/08 01:13:30;;;;;;;;;;;;;;;13.91;nan;100984.84;5059054;28;20405;-34
2023/01/08 01:15:59;;;;;;;;;;;;;;;13.87;nan;100997.22;5057439;28;19923;-33
2023/01/08 01:18:24;;;;;;;;;;;;;;;13.85;nan;100996.69;5058891;28;19968;-33
2023/01/08 01:20:50;;;;;;;;;;;;;;;13.85;nan;100988.59;5060240;28;19963;-34
2023/01/08 01:23:15;;;;;;;;;;;;;;;13.88;nan;100990.75;5060765;28;20596;-33
2023/01/08 01:25:41;;;;;;;;;;;;;;;13.85;nan;100989.41;5056425;28;20401;-33
2023/01/08 01:28:06;;;;;;;;;;;;;;;13.85;nan;100975.13;5055537;28;20392;-33
2023/01/08 01:30:31;;;;;;;;;;;;;;;13.90;nan;100981.34;5060058;28;20349;-34
2023/01/08 01:32:56;;;;;;;;;;;;;;;13.84;nan;100973.53;5057515;28;20505;-33
2023/01/08 01:35:22;;;;;;;;;;;;;;;13.88;nan;100969.22;5058398;28;19920;-34
2023/01/08 01:37:47;;;;;;;;;;;;;;;13.94;nan;100973.53;5054829;28;19932;-33
2023/01/08 01:40:12;;;;;;;;;;;;;;;13.95;nan;100977.84;5056941;28;19928;-33
2023/01/08 01:42:42;;;;;;;;;;;;;;;13.98;nan;100971.94;5054312;28;19932;-33
2023/01/08 01:45:13;;;;;;;;;;;;;;;13.95;nan;100972.47;5054897;28;19931;-34
2023/01/08 01:47:39;;;;;;;;;;;;;;;13.94;nan;100965.47;5053455;28;20344;-33
2023/01/08 01:50:14;;;;;;;;;;;;;;;13.94;nan;100968.16;5058738;28;19920;-34
2023/01/08 01:52:42;;;;;;;;;;;;;;;13.93;nan;100958.44;5056301;28;19981;-34
2023/01/08 01:55:10;;;;;;;;;;;;;;;13.91;nan;100944.44;5061059;28;19932;-36
2023/01/08 01:57:35;;;;;;;;;;;;;;;13.94;nan;100952.00;5055882;28;19925;-39
2023/01/08 02:00:03;;;;;;;;;;;;;;;13.99;nan;100952.00;5056341;28;19927;-38
2023/01/08 02:02:29;;;;;;;;;;;;;;;13.99;nan;100949.28;5061806;28;20150;-36
2023/01/08 02:04:54;;;;;;;;;;;;;;;14.03;nan;100949.59;5060328;28;19923;-37
2023/01/08 02:07:31;;;;;;;;;;;;;;;14.01;nan;100954.44;5061168;28;20511;-36
2023/01/08 02:10:19;;;;;;;;;;;;;;;13.99;nan;100952.00;5060207;28;20337;-37
2023/01/08 02:12:49;;;;;;;;;;;;;;;13.98;nan;100955.75;5055516;28;19968;-36
2023/01/08 02:15:18;;;;;;;;;;;;;;;14.00;nan;100944.72;5059050;28;20216;-37
2023/01/08 02:17:48;;;;;;;;;;;;;;;13.99;nan;100929.63;5057426;28;19963;-36
2023/01/08 02:20:40;;;;;;;;;;;;;;;13.98;nan;100917.25;5059054;28;19940;-36
2023/01/08 02:23:05;;;;;;;;;;;;;;;13.94;nan;100908.09;5052731;28;19921;-37
2023/01/08 02:25:37;;;;;;;;;;;;;;;13.88;nan;100907.28;5061376;28;20344;-39
2023/01/08 02:28:06;;;;;;;;;;;;;;;13.81;nan;100901.31;5059941;28;19920;-36
2023/01/08 02:30:31;;;;;;;;;;;;;;;13.82;nan;100902.94;5065916;28;19966;-36
2023/01/08 02:32:56;;;;;;;;;;;;;;;13.82;nan;100908.31;5060508;28;19921;-37
2023/01/08 02:35:22;;;;;;;;;;;;;;;13.79;nan;100900.78;5064199;28;19917;-36
2023/01/08 02:37:47;;;;;;;;;;;;;;;13.76;nan;100899.41;5059737;28;19935;-37
2023/01/08 02:40:16;;;;;;;;;;;;;;;13.71;nan;100888.66;5059866;28;20387;-37
2023/01/08 02:42:57;;;;;;;;;;;;;;;13.71;nan;100891.34;5055811;28;19920;-36
2023/01/08 02:45:29;;;;;;;;;;;;;;;13.69;nan;100896.19;5059196;28;20294;-36
2023/01/08 02:48:01;;;;;;;;;;;;;;;13.69;nan;100887.28;5061644;28;19959;-38
2023/01/08 02:50:32;;;;;;;;;;;;;;;13.67;nan;100878.69;5064502;28;20290;-36
2023/01/08 02:53:05;;;;;;;;;;;;;;;13.66;nan;100888.63;5060762;28;19943;-36
2023/01/08 02:55:33;;;;;;;;;;;;;;;13.64;nan;100884.56;5057809;28;19970;-39
2023/01/08 02:57:58;;;;;;;;;;;;;;;13.64;nan;100893.44;5064929;28;19920;-36
2023/01/08 03:00:24;;;;;;;;;;;;;;;13.63;nan;100896.41;5062067;28;19917;-36
2023/01/08 03:02:55;;;;;;;;;;;;;;;13.60;nan;100885.09;5060767;28;19954;-36
2023/01/08 03:05:22;;;;;;;;;;;;;;;13.54;nan;100875.41;5059255;28;19920;-36
2023/01/08 03:07:48;;;;;;;;;;;;;;;13.52;nan;100871.34;5055760;28;19950;-37
2023/01/08 03:10:14;;;;;;;;;;;;;;;13.48;nan;100857.63;5058888;28;20499;-36
2023/01/08 03:12:44;;;;;;;;;;;;;;;13.45;nan;100868.91;5055900;28;19960;-38
2023/01/08 03:15:12;;;;;;;;;;;;;;;13.43;nan;100859.47;5058293;28;19939;-36
2023/01/08 03:17:45;;;;;;;;;;;;;;;13.35;nan;100866.19;5057197;28;19931;-37
2023/01/08 03:20:13;;;;;;;;;;;;;;;13.33;nan;100862.13;5061626;28;19917;-36
2023/01/08 03:22:40;;;;;;;;;;;;;;;13.27;nan;100861.28;5065107;28;19986;-37
2023/01/08 03:25:07;;;;;;;;;;;;;;;13.26;nan;100862.38;5062137;28;19971;-37
2023/01/08 03:27:33;;;;;;;;;;;;;;;13.17;nan;100855.84;5058645;28;19962;-36
2023/01/08 03:29:59;;;;;;;;;;;;;;;13.18;nan;100852.13;5057359;28;19970;-35
2023/01/08 03:32:26;;;;;;;;;;;;;;;13.12;nan;100851.25;5059976;28;20331;-37
2023/01/08 03:34:53;;;;;;;;;;;;;;;13.11;nan;100848.84;5062677;28;19959;-36
2023/01/08 03:37:21;;;;;;;;;;;;;;;13.09;nan;100846.38;5064507;28;19924;-37
2023/01/08 03:39:50;;;;;;;;;;;;;;;13.09;nan;100850.94;5056946;28;20382;-39
2023/01/08 03:42:16;;;;;;;;;;;;;;;13.03;nan;100850.13;5062579;28;19916;-39
2023/01/08 03:44:42;;;;;;;;;;;;;;;13.02;nan;100845.81;5061745;28;20274;-36
2023/01/08 03:47:09;;;;;;;;;;;;;;;12.99;nan;100841.78;5061678;28;19962;-36
2023/01/08 03:49:35;;;;;;;;;;;;;;;12.97;nan;100837.75;5055366;28;20012;-39
2023/01/08 03:52:00;;;;;;;;;;;;;;;12.96;nan;100826.16;5061199;28;20385;-36
2023/01/08 03:54:29;;;;;;;;;;;;;;;12.98;nan;100828.59;5061608;28;19926;-36
2023/01/08 03:56:54;;;;;;;;;;;;;;;12.88;nan;100826.66;5055066;28;19990;-36
2023/01/08 03:59:19;;;;;;;;;;;;;;;12.88;nan;100829.34;5062313;28;20398;-40
2023/01/08 04:01:45;;;;;;;;;;;;;;;12.88;nan;100826.66;5055912;28;19917;-37
2023/01/08 04:04:11;;;;;;;;;;;;;;;12.90;nan;100842.53;5061617;28;19924;-37
2023/01/08 04:06:36;;;;;;;;;;;;;;;12.88;nan;100834.72;5060206;28;20498;-36
2023/01/08 04:09:02;;;;;;;;;;;;;;;12.87;nan;100826.91;5058941;28;19920;-36
2023/01/08 04:11:27;;;;;;;;;;;;;;;12.81;nan;100823.41;5059824;28;20054;-36
2023/01/08 04:13:52;;;;;;;;;;;;;;;12.75;nan;100819.06;5058331;28;19920;-36
2023/01/08 04:16:18;;;;;;;;;;;;;;;12.73;nan;100821.19;5061919;28;20392;-36
2023/01/08 04:18:43;;;;;;;;;;;;;;;12.65;nan;100814.44;5060760;28;20105;-36
2023/01/08 04:21:08;;;;;;;;;;;;;;;12.60;nan;100816.28;5060076;28;20513;-36
2023/01/08 04:23:34;;;;;;;;;;;;;;;12.58;nan;100823.81;5058813;28;19999;-36
2023/01/08 04:26:02;;;;;;;;;;;;;;;12.50;nan;100811.66;5058287;28;20078;-36
2023/01/08 04:28:27;;;;;;;;;;;;;;;12.51;nan;100820.53;5056358;28;19920;-36
2023/01/08 04:30:53;;;;;;;;;;;;;;;12.52;nan;100811.38;5059946;28;20413;-36
2023/01/08 04:33:18;;;;;;;;;;;;;;;12.52;nan;100800.63;5058224;28;20408;-36
2023/01/08 04:35:43;;;;;;;;;;;;;;;12.49;nan;100809.22;5057689;28;20349;-36
2023/01/08 04:38:09;;;;;;;;;;;;;;;12.46;nan;100809.75;5060331;28;20382;-36
2023/01/08 04:40:34;;;;;;;;;;;;;;;12.45;nan;100805.44;5058796;28;19925;-37
2023/01/08 04:42:59;;;;;;;;;;;;;;;12.36;nan;100803.22;5061853;28;19924;-36
2023/01/08 04:45:25;;;;;;;;;;;;;;;12.36;nan;100808.59;5057968;28;19994;-35
2023/01/08 04:47:57;;;;;;;;;;;;;;;12.34;nan;100801.88;5057982;28;20384;-36
2023/01/08 04:50:22;;;;;;;;;;;;;;;12.32;nan;100812.88;5057339;28;19920;-36
2023/01/08 04:52:47;;;;;;;;;;;;;;;12.33;nan;100817.16;5061249;28;20019;-36
2023/01/08 04:55:13;;;;;;;;;;;;;;;12.30;nan;100817.69;5061354;28;19921;-36
2023/01/08 04:57:38;;;;;;;;;;;;;;;12.27;nan;100810.16;5059176;28;20417;-36
2023/01/08 05:00:04;;;;;;;;;;;;;;;12.22;nan;100804.75;5061674;28;19977;-36
2023/01/08 05:02:29;;;;;;;;;;;;;;;12.22;nan;100802.06;5057348;28;19920;-37
2023/01/08 05:04:54;;;;;;;;;;;;;;;12.25;nan;100804.22;5060808;28;20097;-36
2023/01/08 05:07:20;;;;;;;;;;;;;;;12.30;nan;100806.13;5061300;28;20132;-36
2023/01/08 05:09:45;;;;;;;;;;;;;;;12.23;nan;100798.31;5061321;28;19982;-38
2023/01/08 05:12:10;;;;;;;;;;;;;;;12.21;nan;100797.75;5057793;28;19924;-36
2023/01/08 05:14:36;;;;;;;;;;;;;;;12.17;nan;100798.50;5059678;28;19916;-38
2023/01/08 05:17:01;;;;;;;;;;;;;;;12.14;nan;100799.84;5059480;28;19920;-35
2023/01/08 05:19:26;;;;;;;;;;;;;;;12.15;nan;100804.16;5060096;28;19931;-38
2023/01/08 05:21:52;;;;;;;;;;;;;;;12.08;nan;100798.19;5059925;28;19924;-37
2023/01/08 05:24:17;;;;;;;;;;;;;;;12.04;nan;100797.09;5065421;28;19924;-35
2023/01/08 05:26:42;;;;;;;;;;;;;;;12.04;nan;100778.28;5062831;28;19916;-36
2023/01/08 05:29:08;;;;;;;;;;;;;;;12.00;nan;100780.66;5065964;28;19920;-36
2023/01/08 05:31:34;;;;;;;;;;;;;;;11.96;nan;100778.75;5064006;28;20398;-36
2023/01/08 05:33:59;;;;;;;;;;;;;;;11.89;nan;100780.84;5066397;28;19924;-36
2023/01/08 05:36:25;;;;;;;;;;;;;;;11.87;nan;100774.94;5069491;28;20271;-36
2023/01/08 05:38:50;;;;;;;;;;;;;;;11.86;nan;100767.94;5064758;28;19931;-36
2023/01/08 05:41:15;;;;;;;;;;;;;;;11.83;nan;100763.06;5065281;28;19923;-35
2023/01/08 05:43:41;;;;;;;;;;;;;;;11.75;nan;100754.38;5064778;28;19959;-39
2023/01/08 05:46:06;;;;;;;;;;;;;;;11.74;nan;100751.97;5066683;28;19924;-37
2023/01/08 05:48:32;;;;;;;;;;;;;;;11.76;nan;100752.50;5061017;28;19917;-38
2023/01/08 05:50:58;;;;;;;;;;;;;;;11.74;nan;100744.72;5060318;28;19927;-36
2023/01/08 05:53:23;;;;;;;;;;;;;;;11.74;nan;100746.59;5064790;28;20647;-36
2023/01/08 05:55:48;;;;;;;;;;;;;;;11.76;nan;100742.59;5062544;28;20143;-35
2023/01/08 05:58:17;;;;;;;;;;;;;;;11.78;nan;100745.84;5066552;28;19920;-36
2023/01/08 06:00:43;;;;;;;;;;;;;;;11.79;nan;100742.09;5063498;28;19932;-37
2023/01/08 06:03:08;;;;;;;;;;;;;;;11.80;nan;100741.03;5065009;28;19969;-35
2023/01/08 06:05:34;;;;;;;;;;;;;;;11.73;nan;100753.03;5058089;28;19962;-36
2023/01/08 06:07:59;;;;;;;;;;;;;;;11.74;nan;100749.28;5068069;28;19921;-36
2023/01/08 06:10:25;;;;;;;;;;;;;;;11.75;nan;100749.03;5070242;28;19916;-36
2023/01/08 06:12:50;;;;;;;;;;;;;;;11.77;nan;100741.50;5066512;28;20369;-36
2023/01/08 06:15:16;;;;;;;;;;;;;;;11.76;nan;100747.94;5071482;28;19923;-36
2023/01/08 06:17:41;;;;;;;;;;;;;;;11.80;nan;100746.41;5067985;28;20009;-38
2023/01/08 06:20:07;;;;;;;;;;;;;;;11.77;nan;100744.19;5069122;28;19924;-35
2023/01/08 06:22:33;;;;;;;;;;;;;;;11.78;nan;100736.97;5062960;28;19924;-38
2023/01/08 06:24:59;;;;;;;;;;;;;;;11.75;nan;100738.28;5070354;28;20072;-36
2023/01/08 06:27:24;;;;;;;;;;;;;;;11.74;nan;100723.25;5065318;28;20442;-38
2023/01/08 06:29:49;;;;;;;;;;;;;;;11.72;nan;100720.00;5067520;28;20275;-36
2023/01/08 06:32:15;;;;;;;;;;;;;;;11.71;nan;100717.59;5063860;28;19916;-37
2023/01/08 06:34:40;;;;;;;;;;;;;;;11.71;nan;100704.16;5064610;28;19916;-39
2023/01/08 06:37:05;;;;;;;;;;;;;;;11.71;nan;100709.53;5063537;28;19924;-39
2023/01/08 06:39:31;;;;;;;;;;;;;;;11.68;nan;100710.84;5064264;28;19970;-39
2023/01/08 06:41:56;;;;;;;;;;;;;;;11.64;nan;100716.97;5063427;28;20530;-35
2023/01/08 06:44:22;;;;;;;;;;;;;;;11.64;nan;100717.78;5059625;28;19925;-36
2023/01/08 06:46:47;;;;;;;;;;;;;;;11.65;nan;100719.41;5062954;28;20416;-36
2023/01/08 06:49:13;;;;;;;;;;;;;;;11.62;nan;100725.28;5060923;28;20553;-37
2023/01/08 06:51:39;;;;;;;;;;;;;;;11.56;nan;100723.63;5060372;28;19917;-36
2023/01/08 06:54:04;;;;;;;;;;;;;;;11.55;nan;100722.00;5058029;28;19920;-36
2023/01/08 06:56:30;;;;;;;;;;;;;;;11.48;nan;100718.72;5056006;28;19989;-37
2023/01/08 06:58:55;;;;;;;;;;;;;;;11.48;nan;100729.44;5056769;28;19928;-35
2023/01/08 07:01:21;;;;;;;;;;;;;;;11.47;nan;100725.94;5056971;28;19931;-36
2023/01/08 07:03:47;;;;;;;;;;;;;;;11.45;nan;100721.91;5057855;28;20201;-36
2023/01/08 07:06:14;;;;;;;;;;;;;;;11.48;nan;100722.19;5058789;28;20000;-37
2023/01/08 07:08:39;;;;;;;;;;;;;;;11.54;nan;100719.59;5064254;28;19994;-37
2023/01/08 07:11:05;;;;;;;;;;;;;;;11.57;nan;100717.19;5063145;28;20011;-37
2023/01/08 07:13:30;;;;;;;;;;;;;;;11.56;nan;100715.56;5063355;28;19970;-37
2023/01/08 07:15:55;;;;;;;;;;;;;;;11.56;nan;100710.22;5061802;28;20026;-36
2023/01/08 07:18:21;;;;;;;;;;;;;;;11.56;nan;100709.41;5065457;28;20493;-37
2023/01/08 07:20:49;;;;;;;;;;;;;;;11.55;nan;100700.53;5059953;28;20294;-38
2023/01/08 07:23:14;;;;;;;;;;;;;;;11.55;nan;100697.84;5060053;28;20008;-36
2023/01/08 07:25:40;;;;;;;;;;;;;;;11.59;nan;100703.53;5063557;28;20019;-36
2023/01/08 07:28:05;;;;;;;;;;;;;;;11.60;nan;100703.25;5065793;28;19920;-37
2023/01/08 07:30:31;;;;;;;;;;;;;;;11.64;nan;100700.88;5064165;28;20374;-38
2023/01/08 07:32:57;;;;;;;;;;;;;;;11.61;nan;100717.50;5061362;28;20294;-36
2023/01/08 07:35:22;;;;;;;;;;;;;;;11.63;nan;100713.47;5063059;28;19916;-36
2023/01/08 07:37:47;;;;;;;;;;;;;;;11.65;nan;100714.03;5064339;28;19928;-37
2023/01/08 07:40:13;;;;;;;;;;;;;;;11.61;nan;100707.56;5064300;28;19920;-36
2023/01/08 07:42:38;;;;;;;;;;;;;;;11.61;nan;100707.56;5062134;28;19924;-39
2023/01/08 07:45:04;;;;;;;;;;;;;;;11.62;nan;100705.69;5064961;28;19970;-36
2023/01/08 07:47:29;;;;;;;;;;;;;;;11.66;nan;100706.78;5064151;28;20381;-37
2023/01/08 07:49:54;;;;;;;;;;;;;;;11.65;nan;100697.94;5064297;28;19955;-38
2023/01/08 07:52:20;;;;;;;;;;;;;;;11.64;nan;100695.50;5063079;28;19928;-35
2023/01/08 07:54:45;;;;;;;;;;;;;;;11.69;nan;100703.63;5061401;28;19916;-33
2023/01/08 07:57:10;;;;;;;;;;;;;;;11.67;nan;100700.34;5062982;28;19916;-33
2023/01/08 07:59:36;;;;;;;;;;;;;;;11.67;nan;100701.19;5061551;28;19931;-33
2023/01/08 08:02:01;;;;;;;;;;;;;;;11.67;nan;100698.50;5060882;28;19931;-33
2023/01/08 08:04:26;;;;;;;;;;;;;;;11.65;nan;100700.59;5063153;28;19916;-33
2023/01/08 08:06:53;;;;;;;;;;;;;;;11.69;nan;100704.44;5055665;28;19920;-33
2023/01/08 08:09:18;;;;;;;;;;;;;;;11.68;nan;100697.44;5057001;28;19925;-33
2023/01/08 08:11:43;;;;;;;;;;;;;;;11.66;nan;100693.38;5063018;28;20003;-33
2023/01/08 08:14:09;;;;;;;;;;;;;;;11.67;nan;100700.34;5060644;28;20003;-33
2023/01/08 08:16:34;;;;;;;;;;;;;;;11.67;nan;100692.31;5055882;28;19956;-33
2023/01/08 08:18:59;;;;;;;;;;;;;;;11.68;nan;100697.44;5055702;28;19921;-33
2023/01/08 08:21:25;;;;;;;;;;;;;;;11.70;nan;100687.25;5058342;28;20366;-33
2023/01/08 08:23:51;;;;;;;;;;;;;;;11.71;nan;100691.56;5060562;28;19928;-33
2023/01/08 08:26:16;;;;;;;;;;;;;;;11.70;nan;100689.13;5063332;28;20316;-33
2023/01/08 08:28:41;;;;;;;;;;;;;;;11.73;nan;100689.41;5058661;28;20390;-33
2023/01/08 08:31:07;;;;;;;;;;;;;;;11.80;nan;100692.72;5061567;28;20341;-33
2023/01/08 08:33:32;;;;;;;;;;;;;;;11.80;nan;100683.84;5057048;28;20367;-33
2023/01/08 08:35:57;;;;;;;;;;;;;;;11.84;nan;100678.78;5057967;28;19924;-33
2023/01/08 08:38:25;;;;;;;;;;;;;;;11.90;nan;100678.56;5058628;28;19921;-33
2023/01/08 08:40:50;;;;;;;;;;;;;;;11.90;nan;100680.44;5061698;28;19916;-33
2023/01/08 08:43:16;;;;;;;;;;;;;;;11.93;nan;100678.03;5052479;28;19943;-33
2023/01/08 08:45:41;;;;;;;;;;;;;;;11.98;nan;100682.63;5060321;28;19920;-33
2023/01/08 08:48:07;;;;;;;;;;;;;;;11.99;nan;100681.56;5057927;28;19970;-33
2023/01/08 08:50:33;;;;;;;;;;;;;;;12.02;nan;100683.72;5055346;28;19926;-33
2023/01/08 08:52:59;;;;;;;;;;;;;;;12.02;nan;100687.22;5055193;28;20002;-33
2023/01/08 08:55:25;;;;;;;;;;;;;;;12.02;nan;100681.03;5058298;28;20341;-33
2023/01/08 08:57:51;;;;;;;;;;;;;;;11.99;nan;100678.88;5058229;28;19974;-33
2023/01/08 09:00:19;;;;;;;;;;;;;;;11.97;nan;100681.81;5058789;28;20903;-33
2023/01/08 09:02:44;;;;;;;;;;;;;;;12.00;nan;100681.31;5055392;28;20015;-33
2023/01/08 09:05:10;;;;;;;;;;;;;;;12.06;nan;100688.34;5060636;28;19920;-33
2023/01/08 09:07:35;;;;;;;;;;;;;;;12.09;nan;100687.00;5056328;28;19916;-33
2023/01/08 09:10:01;;;;;;;;;;;;;;;12.12;nan;100681.13;5060006;28;21414;-33
2023/01/08 09:12:26;;;;;;;;;;;;;;;12.13;nan;100682.72;5056806;28;19946;-33
2023/01/08 09:14:53;;;;;;;;;;;;;;;12.16;nan;100679.53;5056456;28;19950;-33
2023/01/08 09:17:20;;;;;;;;;;;;;;;12.20;nan;100677.94;5060015;28;20390;-33
2023/01/08 09:19:45;;;;;;;;;;;;;;;12.22;nan;100675.81;5057436;28;19923;-33
2023/01/08 09:22:10;;;;;;;;;;;;;;;12.26;nan;100682.28;5056657;28;20373;-33
2023/01/08 09:24:36;;;;;;;;;;;;;;;12.25;nan;100677.16;5059665;28;19931;-33
2023/01/08 09:27:01;;;;;;;;;;;;;;;12.29;nan;100687.13;5052901;28;20004;-33
2023/01/08 09:29:26;;;;;;;;;;;;;;;12.34;nan;100679.09;5059762;28;19920;-33
2023/01/08 09:31:52;;;;;;;;;;;;;;;12.36;nan;100674.25;5056478;28;20531;-33
2023/01/08 09:34:17;;;;;;;;;;;;;;;12.42;nan;100683.16;5057780;28;20390;-33
2023/01/08 09:36:43;;;;;;;;;;;;;;;12.43;nan;100683.97;5060918;28;19920;-33
2023/01/08 09:39:09;;;;;;;;;;;;;;;12.46;nan;100675.38;5057523;28;19924;-33
2023/01/08 09:41:37;;;;;;;;;;;;;;;12.48;nan;100673.25;5057640;28;19920;-33
2023/01/08 09:44:03;;;;;;;;;;;;;;;12.52;nan;100683.19;5053107;28;19924;-33
2023/01/08 09:46:29;;;;;;;;;;;;;;;12.55;nan;100676.47;5061333;28;20432;-33
2023/01/08 09:48:57;;;;;;;;;;;;;;;12.60;nan;100676.53;5055659;28;19927;-33
2023/01/08 09:51:26;;;;;;;;;;;;;;;12.60;nan;100663.09;5060460;28;19921;-33
2023/01/08 09:53:56;;;;;;;;;;;;;;;12.62;nan;100659.06;5050872;28;19916;-33
2023/01/08 09:56:21;;;;;;;;;;;;;;;12.68;nan;100649.13;5056055;28;19916;-33
2023/01/08 09:58:51;;;;;;;;;;;;;;;12.73;nan;100649.13;5058293;28;20287;-33
2023/01/08 10:01:18;;;;;;;;;;;;;;;12.78;nan;100667.19;5059541;28;20008;-33
2023/01/08 10:03:57;;;;;;;;;;;;;;;12.83;nan;100659.13;5056537;28;19947;-33
2023/01/08 10:06:23;;;;;;;;;;;;;;;12.86;nan;100655.91;5056519;28;19942;-33
2023/01/08 10:08:49;;;;;;;;;;;;;;;12.89;nan;100642.72;5061776;28;19916;-33
2023/01/08 10:11:15;;;;;;;;;;;;;;;12.92;nan;100630.63;5064757;28;19920;-33
2023/01/08 10:13:43;;;;;;;;;;;;;;;12.94;nan;100623.94;5064651;28;19916;-33
2023/01/08 10:16:10;;;;;;;;;;;;;;;13.00;nan;100611.28;5061427;28;19920;-33
2023/01/08 10:18:36;;;;;;;;;;;;;;;13.09;nan;100598.09;5063872;28;19971;-33
2023/01/08 10:21:01;;;;;;;;;;;;;;;13.16;nan;100604.84;5060419;28;19925;-33
2023/01/08 10:23:27;;;;;;;;;;;;;;;13.23;nan;100607.31;5062752;28;19924;-33
2023/01/08 10:25:56;;;;;;;;;;;;;;;13.29;nan;100627.75;5061029;28;19927;-33
2023/01/08 10:28:26;;;;;;;;;;;;;;;13.30;nan;100634.75;5060943;28;19921;-33
2023/01/08 10:30:53;;;;;;;;;;;;;;;13.28;nan;100640.41;5060995;28;20520;-33
2023/01/08 10:33:27;;;;;;;;;;;;;;;13.28;nan;100639.56;5060643;28;19927;-33
2023/01/08 10:36:03;;;;;;;;;;;;;;;13.28;nan;100635.03;5054263;28;20382;-33
2023/01/08 10:38:30;;;;;;;;;;;;;;;13.30;nan;100637.44;5058213;28;19924;-33
2023/01/08 10:40:56;;;;;;;;;;;;;;;13.26;nan;100626.41;5059307;28;20413;-33
2023/01/08 10:43:33;;;;;;;;;;;;;;;13.26;nan;100614.81;5057902;28;19917;-33
2023/01/08 10:46:03;;;;;;;;;;;;;;;13.25;nan;100614.03;5054734;28;20562;-33
2023/01/08 10:48:37;;;;;;;;;;;;;;;13.25;nan;100610.53;5058979;28;20282;-33
2023/01/08 10:51:06;;;;;;;;;;;;;;;13.25;nan;100602.44;5051300;28;19924;-33
2023/01/08 10:53:32;;;;;;;;;;;;;;;13.25;nan;100587.13;5058622;28;19920;-33
2023/01/08 10:55:58;;;;;;;;;;;;;;;13.28;nan;100585.75;5059412;28;19920;-33
2023/01/08 10:58:24;;;;;;;;;;;;;;;13.30;nan;100584.44;5059693;28;19924;-33
2023/01/08 11:00:49;;;;;;;;;;;;;;;13.37;nan;100573.41;5054607;28;20042;-33
2023/01/08 11:03:22;;;;;;;;;;;;;;;13.42;nan;100573.38;5058103;28;19982;-33
2023/01/08 11:05:48;;;;;;;;;;;;;;;13.42;nan;100586.84;5056589;28;20007;-33
2023/01/08 11:08:18;;;;;;;;;;;;;;;13.45;nan;100590.88;5059433;28;19920;-33
2023/01/08 11:10:57;;;;;;;;;;;;;;;13.43;nan;100595.72;5057857;28;19970;-33
2023/01/08 11:13:23;;;;;;;;;;;;;;;13.38;nan;100599.22;5056401;28;20452;-33
2023/01/08 11:16:05;;;;;;;;;;;;;;;13.38;nan;100601.13;5063648;28;19963;-33
2023/01/08 11:18:41;;;;;;;;;;;;;;;13.32;nan;100597.63;5058040;28;20293;-33
2023/01/08 11:21:08;;;;;;;;;;;;;;;13.30;nan;100595.22;5060119;28;19921;-33
2023/01/08 11:23:33;;;;;;;;;;;;;;;13.30;nan;100591.72;5059095;28;19920;-33
2023/01/08 11:26:04;;;;;;;;;;;;;;;13.31;nan;100593.31;5060617;28;20157;-33
2023/01/08 11:28:41;;;;;;;;;;;;;;;13.35;nan;100583.63;5058753;28;20305;-33
2023/01/08 11:31:16;;;;;;;;;;;;;;;13.32;nan;100592.25;5057885;28;19924;-33
2023/01/08 11:33:43;;;;;;;;;;;;;;;13.33;nan;100588.47;5059569;28;19986;-33
2023/01/08 11:36:22;;;;;;;;;;;;;;;13.34;nan;100590.09;5058843;28;19920;-33
2023/01/08 11:38:48;;;;;;;;;;;;;;;13.35;nan;100591.69;5059748;28;20031;-33
2023/01/08 11:41:19;;;;;;;;;;;;;;;13.36;nan;100585.25;5057422;28;20011;-33
2023/01/08 11:44:03;;;;;;;;;;;;;;;13.36;nan;100582.56;5060023;28;19995;-33
2023/01/08 11:46:35;;;;;;;;;;;;;;;13.40;nan;100580.94;5058727;28;19947;-33
2023/01/08 11:49:20;;;;;;;;;;;;;;;13.39;nan;100584.69;5059214;28;19966;-33
2023/01/08 11:52:05;;;;;;;;;;;;;;;13.40;nan;100572.03;5058537;28;20442;-33
2023/01/08 11:54:33;;;;;;;;;;;;;;;13.44;nan;100562.34;5062751;28;19974;-33
2023/01/08 11:57:17;;;;;;;;;;;;;;;13.46;nan;100558.31;5059128;28;19932;-33
2023/01/08 11:59:43;;;;;;;;;;;;;;;13.51;nan;100552.13;5057901;28;19929;-33
2023/01/08 12:02:19;;;;;;;;;;;;;;;13.58;nan;100558.03;5061593;28;20243;-33
2023/01/08 12:04:47;;;;;;;;;;;;;;;13.65;nan;100544.28;5053442;28;20303;-33
2023/01/08 12:07:22;;;;;;;;;;;;;;;13.67;nan;100544.81;5058167;28;20313;-33
2023/01/08 12:10:09;;;;;;;;;;;;;;;13.70;nan;100538.88;5052041;28;20425;-33
2023/01/08 12:12:34;;;;;;;;;;;;;;;13.71;nan;100529.72;5060396;28;20309;-33
2023/01/08 12:15:07;;;;;;;;;;;;;;;13.74;nan;100529.19;5055930;28;19968;-33
2023/01/08 12:17:36;;;;;;;;;;;;;;;13.82;nan;100521.34;5055656;28;19949;-33
2023/01/08 12:20:19;;;;;;;;;;;;;;;13.89;nan;100507.59;5054262;28;20112;-33
2023/01/08 12:22:54;;;;;;;;;;;;;;;13.94;nan;100510.25;5056103;28;20657;-33
2023/01/08 12:25:39;;;;;;;;;;;;;;;13.99;nan;100499.44;5056619;28;19920;-33
2023/01/08 12:28:24;;;;;;;;;;;;;;;14.06;nan;100505.34;5058925;28;19920;-33
2023/01/08 12:31:07;;;;;;;;;;;;;;;14.11;nan;100505.31;5054073;28;19927;-33
2023/01/08 12:33:53;;;;;;;;;;;;;;;14.12;nan;100504.25;5055646;28;19924;-33
2023/01/08 12:36:25;;;;;;;;;;;;;;;14.12;nan;100496.16;5059318;28;19928;-33
2023/01/08 12:39:03;;;;;;;;;;;;;;;14.14;nan;100495.88;5059726;28;19947;-33
2023/01/08 12:41:30;;;;;;;;;;;;;;;14.18;nan;100492.38;5053104;28;19956;-33
2023/01/08 12:43:58;;;;;;;;;;;;;;;14.18;nan;100492.38;5052753;28;19936;-33
2023/01/08 12:46:24;;;;;;;;;;;;;;;14.17;nan;100481.84;5058225;28;19924;-33
2023/01/08 12:48:51;;;;;;;;;;;;;;;14.21;nan;100491.81;5060023;28;20094;-33
2023/01/08 12:51:20;;;;;;;;;;;;;;;14.25;nan;100496.63;5057652;28;20362;-33
2023/01/08 12:54:04;;;;;;;;;;;;;;;14.25;nan;100494.75;5058293;28;19946;-33
2023/01/08 12:56:47;;;;;;;;;;;;;;;14.26;nan;100495.56;5058756;28;20992;-33
2023/01/08 12:59:31;;;;;;;;;;;;;;;14.21;nan;100486.41;5058591;28;19927;-33